Time;durP1;ratioP1;P1;durP2;ratioP2;P2;SDS_P1;SDS_P2;PMS_P1;PMS_P2;Temp;Humidity;BMP_temperature;BMP_pressure;BME280_temperature;BME280_humidity;BME280_pressure;Samples;Min_cycle;Max_cycle;Signal;HPM_P1;HPM_P2
2024/04/25 00:01:40;;;;;;;6.07;3.03;;;4.90;98.90;;;;;;5419841;26;19999;-89
2024/04/25 00:04:06;;;;;;;5.40;2.70;;;5.00;99.10;;;;;;5418836;26;20087;-88
2024/04/25 00:06:31;;;;;;;10.18;3.13;;;5.00;99.40;;;;;;5405102;26;20015;-88
2024/04/25 00:08:57;;;;;;;4.97;2.70;;;4.90;99.40;;;;;;5387534;26;20001;-89
2024/04/25 00:11:24;;;;;;;6.50;2.50;;;5.00;99.70;;;;;;5411807;26;20473;-89
2024/04/25 00:13:50;;;;;;;5.43;3.92;;;5.00;99.40;;;;;;5419042;26;19995;-89
2024/04/25 00:16:15;;;;;;;4.00;3.70;;;4.90;99.50;;;;;;5399192;26;20050;-88
2024/04/25 00:18:41;;;;;;;7.57;3.08;;;5.00;99.60;;;;;;5401568;26;20050;-89
2024/04/25 00:21:06;;;;;;;5.75;3.08;;;4.90;99.70;;;;;;5397793;26;20015;-89
2024/04/25 00:23:32;;;;;;;6.53;4.00;;;4.90;99.90;;;;;;5411891;26;20008;-88
2024/04/25 00:25:58;;;;;;;5.65;3.47;;;4.90;99.50;;;;;;5395983;26;20011;-89
2024/04/25 00:28:23;;;;;;;4.47;3.00;;;4.90;99.00;;;;;;5386173;26;19996;-89
2024/04/25 00:30:50;;;;;;;6.90;3.53;;;5.00;98.80;;;;;;5405957;26;20008;-89
2024/04/25 00:33:16;;;;;;;8.15;3.95;;;4.90;98.70;;;;;;5399911;26;20008;-89
2024/04/25 00:35:42;;;;;;;5.05;3.15;;;4.90;99.00;;;;;;5418247;26;19999;-88
2024/04/25 00:38:09;;;;;;;6.28;3.42;;;4.90;98.60;;;;;;5417546;26;20002;-87
2024/04/25 00:40:35;;;;;;;6.65;3.00;;;4.90;99.00;;;;;;5410900;26;20151;-88
2024/04/25 00:43:03;;;;;;;7.15;3.50;;;4.90;99.30;;;;;;5389707;26;20011;-88
2024/04/25 00:45:28;;;;;;;6.32;2.78;;;4.90;99.80;;;;;;5388112;26;19996;-90
2024/04/25 00:47:54;;;;;;;5.25;2.90;;;4.90;99.90;;;;;;5386976;26;20019;-89
2024/04/25 00:50:22;;;;;;;3.95;2.45;;;4.90;99.90;;;;;;5405578;26;20477;-91
2024/04/25 00:52:48;;;;;;;5.85;3.83;;;5.00;99.90;;;;;;5387712;26;20000;-88
2024/04/25 00:55:14;;;;;;;6.22;4.22;;;5.00;99.90;;;;;;5402870;26;20000;-89
2024/04/25 00:57:42;;;;;;;8.00;3.20;;;5.00;99.90;;;;;;5400462;26;20000;-90
2024/04/25 01:00:11;;;;;;;5.35;3.13;;;5.00;99.90;;;;;;5393137;26;20007;-90
2024/04/25 01:02:38;;;;;;;5.10;2.75;;;4.90;99.90;;;;;;5385571;26;20115;-88
2024/04/25 01:05:07;;;;;;;5.90;3.88;;;4.90;99.90;;;;;;5384123;26;20014;-87
2024/04/25 01:07:33;;;;;;;7.05;3.22;;;4.90;99.90;;;;;;5386782;26;20000;-90
2024/04/25 01:09:58;;;;;;;8.30;4.60;;;4.90;99.90;;;;;;5401120;26;20049;-89
2024/04/25 01:12:25;;;;;;;5.80;3.65;;;4.90;99.90;;;;;;5414926;26;20004;-88
2024/04/25 01:14:51;;;;;;;4.68;3.50;;;4.90;99.90;;;;;;5385892;26;20004;-89
2024/04/25 01:17:16;;;;;;;6.95;3.80;;;4.90;99.90;;;;;;5385084;26;19996;-90
2024/04/25 01:19:43;;;;;;;6.47;3.67;;;4.90;99.90;;;;;;5384445;26;19996;-87
2024/04/25 01:22:09;;;;;;;9.27;4.55;;;4.90;99.90;;;;;;5414343;26;20437;-88
2024/04/25 01:24:34;;;;;;;7.53;4.22;;;4.80;99.90;;;;;;5398144;26;19997;-88
2024/04/25 01:27:03;;;;;;;7.38;4.65;;;4.90;99.90;;;;;;5398152;26;20004;-88
2024/04/25 01:29:30;;;;;;;5.63;3.53;;;4.80;99.90;;;;;;5398199;26;20666;-88
2024/04/25 01:31:56;;;;;;;8.90;4.82;;;4.80;99.90;;;;;;5389620;26;20359;-90
2024/04/25 01:34:24;;;;;;;5.75;4.22;;;4.80;99.90;;;;;;5386822;26;20016;-89
2024/04/25 01:36:50;;;;;;;5.55;3.90;;;4.90;99.90;;;;;;5396635;26;20053;-90
2024/04/25 01:39:16;;;;;;;6.47;3.80;;;4.80;99.90;;;;;;5386024;26;20012;-88
2024/04/25 01:41:41;;;;;;;6.28;4.35;;;4.80;99.90;;;;;;5412221;26;20678;-89
2024/04/25 01:44:07;;;;;;;5.63;3.88;;;4.70;99.90;;;;;;5384446;26;20017;-87
2024/04/25 01:46:33;;;;;;;6.50;4.40;;;4.70;99.90;;;;;;5385194;26;20607;-89
2024/04/25 01:49:01;;;;;;;8.48;4.68;;;4.70;99.90;;;;;;5400653;26;20003;-88
2024/04/25 01:51:31;;;;;;;8.00;5.00;;;4.70;99.90;;;;;;5404276;26;20004;-89
2024/04/25 01:53:56;;;;;;;8.85;4.95;;;4.70;99.90;;;;;;5399207;26;20052;-87
2024/04/25 01:56:22;;;;;;;5.60;4.88;;;4.70;99.90;;;;;;5404100;26;20008;-89
2024/04/25 01:58:47;;;;;;;8.50;4.25;;;4.70;99.90;;;;;;5396284;26;20007;-87
2024/04/25 02:01:13;;;;;;;8.00;5.03;;;4.70;99.90;;;;;;5386515;26;20014;-88
2024/04/25 02:03:39;;;;;;;7.93;4.20;;;4.70;99.90;;;;;;5420619;26;20003;-88
2024/04/25 02:06:05;;;;;;;6.82;5.10;;;4.70;99.90;;;;;;5421013;26;20180;-89
2024/04/25 02:08:31;;;;;;;9.38;4.78;;;4.70;99.90;;;;;;5385331;26;19997;-88
2024/04/25 02:10:56;;;;;;;10.70;5.57;;;4.70;99.90;;;;;;5400100;26;20081;-90
2024/04/25 02:13:22;;;;;;;8.60;3.63;;;4.70;99.90;;;;;;5387889;26;19996;-89
2024/04/25 02:15:47;;;;;;;6.43;4.03;;;4.70;99.90;;;;;;5384588;26;20000;-89
2024/04/25 02:18:13;;;;;;;9.02;4.43;;;4.70;99.90;;;;;;5413477;26;19999;-89
2024/04/25 02:26:09;;;;;;;8.05;4.45;;;4.70;99.90;;;;;;5406219;26;20113;-88
2024/04/25 02:28:34;;;;;;;6.32;4.00;;;4.60;99.90;;;;;;5407051;26;20015;-89
2024/04/25 02:31:01;;;;;;;11.10;4.07;;;4.70;99.90;;;;;;5390256;26;20003;-89
2024/04/25 02:33:26;;;;;;;7.72;4.05;;;4.70;99.90;;;;;;5389914;26;20018;-89
2024/04/25 02:35:52;;;;;;;10.68;5.78;;;4.70;99.90;;;;;;5395825;26;20269;-88
2024/04/25 02:38:19;;;;;;;11.30;4.95;;;4.70;99.90;;;;;;5385558;26;20019;-88
2024/04/25 02:40:45;;;;;;;8.20;4.55;;;4.60;99.90;;;;;;5381452;26;20044;-90
2024/04/25 02:43:10;;;;;;;8.02;4.55;;;4.70;99.90;;;;;;5402472;26;20066;-90
2024/04/25 02:45:36;;;;;;;9.30;5.10;;;4.60;99.90;;;;;;5416764;26;19999;-88
2024/04/25 02:48:02;;;;;;;9.30;5.18;;;4.70;99.90;;;;;;5421089;26;19999;-86
2024/04/25 02:50:27;;;;;;;7.50;4.85;;;4.70;99.90;;;;;;5421348;26;20019;-88
2024/04/25 02:52:53;;;;;;;7.90;5.10;;;4.60;99.90;;;;;;5406170;26;20522;-91
2024/04/25 02:55:19;;;;;;;11.32;5.75;;;4.70;99.90;;;;;;5421374;26;20454;-87
2024/04/25 02:57:44;;;;;;;8.85;5.43;;;4.70;99.90;;;;;;5421417;26;20003;-90
2024/04/25 03:00:10;;;;;;;9.68;4.15;;;4.70;99.90;;;;;;5421048;26;20068;-88
2024/04/25 03:02:36;;;;;;;9.70;5.05;;;4.60;99.90;;;;;;5415699;26;19999;-89
2024/04/25 03:05:02;;;;;;;8.50;4.47;;;4.60;99.90;;;;;;5412641;26;19999;-90
2024/04/25 03:07:28;;;;;;;9.60;5.55;;;4.60;99.90;;;;;;5407355;26;19996;-90
2024/04/25 03:09:53;;;;;;;8.70;5.05;;;4.60;99.90;;;;;;5394547;26;20060;-89
2024/04/25 03:12:22;;;;;;;9.20;3.97;;;4.60;99.90;;;;;;5419011;26;20008;-88
2024/04/25 03:14:47;;;;;;;7.70;5.10;;;4.60;99.90;;;;;;5396713;26;20000;-88
2024/04/25 03:17:13;;;;;;;7.07;4.15;;;4.70;99.90;;;;;;5403172;26;20001;-88
2024/04/25 03:19:38;;;;;;;8.55;4.72;;;4.70;99.90;;;;;;5414711;26;20011;-89
2024/04/25 03:22:04;;;;;;;10.60;5.20;;;4.70;99.90;;;;;;5405842;26;20010;-88
2024/04/25 03:24:29;;;;;;;12.98;4.90;;;4.70;99.90;;;;;;5427093;26;19996;-92
2024/04/25 03:26:55;;;;;;;6.75;3.72;;;4.70;99.90;;;;;;5430045;26;20003;-92
2024/04/25 03:29:21;;;;;;;7.78;4.85;;;4.70;99.90;;;;;;5430930;26;19988;-92
2024/04/25 03:31:48;;;;;;;8.45;4.63;;;4.60;99.90;;;;;;5417617;26;20001;-92
2024/04/25 03:34:16;;;;;;;7.40;4.80;;;4.60;99.90;;;;;;5402063;26;19999;-92
2024/04/25 03:36:42;;;;;;;9.55;4.90;;;4.60;99.90;;;;;;5402017;26;19996;-92
2024/04/25 03:39:07;;;;;;;9.20;5.25;;;4.60;99.90;;;;;;5401469;26;20039;-92
2024/04/25 03:41:33;;;;;;;11.20;5.70;;;4.60;99.90;;;;;;5417445;26;19995;-92
2024/04/25 03:43:59;;;;;;;10.80;6.10;;;4.60;99.90;;;;;;5425029;26;20046;-92
2024/04/25 03:46:25;;;;;;;8.68;3.80;;;4.60;99.90;;;;;;5414927;26;19999;-91
2024/04/25 03:48:51;;;;;;;9.43;4.82;;;4.60;99.90;;;;;;5424899;26;19995;-88
2024/04/25 03:51:16;;;;;;;7.30;5.13;;;4.60;99.90;;;;;;5392839;26;20006;-90
2024/04/25 03:53:42;;;;;;;6.82;5.15;;;4.60;99.90;;;;;;5408189;26;20000;-89
2024/04/25 03:56:08;;;;;;;11.85;6.13;;;4.50;99.90;;;;;;5422282;26;20465;-90
2024/04/25 03:58:33;;;;;;;14.85;6.35;;;4.60;99.90;;;;;;5422394;26;20736;-89
2024/04/25 04:01:00;;;;;;;8.90;5.30;;;4.60;99.90;;;;;;5385176;26;19996;-91
2024/04/25 04:03:26;;;;;;;10.65;4.70;;;4.60;99.90;;;;;;5411006;26;20008;-89
2024/04/25 04:05:52;;;;;;;9.10;5.65;;;4.60;99.90;;;;;;5414388;26;20041;-89
2024/04/25 04:08:17;;;;;;;9.75;6.57;;;4.60;99.90;;;;;;5411244;26;20000;-87
2024/04/25 04:10:43;;;;;;;16.90;5.95;;;4.60;99.90;;;;;;5407998;26;20003;-89
2024/04/25 04:13:10;;;;;;;11.40;5.45;;;4.50;99.90;;;;;;5379329;26;20076;-89
2024/04/25 04:15:36;;;;;;;9.18;4.45;;;4.60;99.90;;;;;;5397660;26;20004;-88
2024/04/25 04:18:02;;;;;;;10.07;5.10;;;4.60;99.90;;;;;;5415210;26;20044;-90
2024/04/25 04:20:28;;;;;;;9.38;5.78;;;4.60;99.90;;;;;;5377635;26;20461;-92
2024/04/25 04:22:53;;;;;;;10.48;6.00;;;4.60;99.90;;;;;;5412212;26;20061;-89
2024/04/25 04:25:19;;;;;;;8.30;4.75;;;4.60;99.90;;;;;;5380220;26;20000;-89
2024/04/25 04:27:44;;;;;;;8.65;5.25;;;4.60;99.90;;;;;;5422161;26;20011;-88
2024/04/25 04:30:10;;;;;;;12.23;5.85;;;4.60;99.90;;;;;;5407811;26;19996;-92
2024/04/25 04:32:36;;;;;;;18.48;5.25;;;4.50;99.90;;;;;;5390404;26;20000;-89
2024/04/25 04:35:02;;;;;;;10.88;6.53;;;4.50;99.90;;;;;;5412182;26;20064;-89
2024/04/25 04:37:28;;;;;;;7.85;5.05;;;4.60;99.90;;;;;;5419240;26;19992;-90
2024/04/25 04:39:53;;;;;;;9.02;6.13;;;4.60;99.90;;;;;;5417420;26;19992;-90
2024/04/25 04:42:19;;;;;;;9.35;5.93;;;4.60;99.90;;;;;;5403324;26;20010;-90
2024/04/25 04:44:44;;;;;;;9.70;5.00;;;4.50;99.90;;;;;;5407007;26;20012;-90
2024/04/25 04:47:10;;;;;;;8.02;4.90;;;4.50;99.90;;;;;;5416478;26;20080;-90
2024/04/25 04:49:36;;;;;;;9.88;5.10;;;4.50;99.90;;;;;;5399195;26;20011;-89
2024/04/25 04:52:02;;;;;;;12.20;5.70;;;4.50;99.90;;;;;;5414812;26;20006;-88
2024/04/25 04:54:27;;;;;;;11.88;5.38;;;4.50;99.90;;;;;;5418134;26;19995;-89
2024/04/25 04:56:53;;;;;;;10.02;5.55;;;4.50;99.90;;;;;;5413312;26;20015;-89
2024/04/25 04:59:19;;;;;;;10.15;5.43;;;4.60;99.90;;;;;;5404714;26;20004;-92
2024/04/25 05:01:44;;;;;;;10.75;5.90;;;4.60;99.90;;;;;;5384576;26;20011;-90
2024/04/25 05:04:10;;;;;;;11.40;5.28;;;4.60;99.90;;;;;;5403944;26;20456;-89
2024/04/25 05:06:35;;;;;;;12.02;5.32;;;4.60;99.90;;;;;;5411441;26;20007;-89
2024/04/25 05:09:01;;;;;;;9.93;5.50;;;4.60;99.90;;;;;;5406711;26;20532;-91
2024/04/25 05:11:30;;;;;;;10.05;4.95;;;4.60;99.90;;;;;;5398159;26;20015;-90
2024/04/25 05:13:56;;;;;;;11.25;6.25;;;4.60;99.90;;;;;;5379606;26;20043;-90
2024/04/25 05:16:22;;;;;;;9.80;3.95;;;4.50;99.90;;;;;;5410509;26;20011;-89
2024/04/25 05:18:47;;;;;;;10.27;5.25;;;4.50;99.90;;;;;;5406417;26;20004;-91
2024/04/25 05:21:13;;;;;;;9.90;5.00;;;4.50;99.90;;;;;;5396258;26;20015;-88
2024/04/25 05:23:39;;;;;;;11.13;4.68;;;4.50;99.90;;;;;;5409675;26;20236;-89
2024/04/25 05:26:07;;;;;;;9.18;4.57;;;4.40;99.90;;;;;;5396244;26;20003;-89
2024/04/25 05:28:33;;;;;;;11.18;4.63;;;4.50;99.90;;;;;;5397109;26;20044;-89
2024/04/25 05:30:58;;;;;;;7.63;5.88;;;4.50;99.90;;;;;;5397126;26;20451;-89
2024/04/25 05:33:24;;;;;;;9.90;5.05;;;4.50;99.90;;;;;;5378400;26;20081;-91
2024/04/25 05:35:50;;;;;;;11.52;5.15;;;4.50;99.90;;;;;;5392363;26;20438;-90
2024/04/25 05:38:16;;;;;;;8.05;4.70;;;4.60;99.90;;;;;;5382527;26;20011;-92
2024/04/25 05:40:44;;;;;;;9.65;5.07;;;4.60;99.90;;;;;;5377888;26;20014;-89
2024/04/25 05:43:10;;;;;;;11.35;6.10;;;4.60;99.90;;;;;;5377613;26;20019;-92
2024/04/25 05:45:35;;;;;;;12.55;6.53;;;4.60;99.90;;;;;;5371389;26;20003;-88
2024/04/25 05:48:01;;;;;;;10.70;5.65;;;4.60;99.90;;;;;;5380213;26;20004;-89
2024/04/25 05:50:26;;;;;;;11.13;5.68;;;4.90;99.90;;;;;;5359840;26;20184;-91
2024/04/25 05:52:52;;;;;;;11.15;4.93;;;4.80;99.90;;;;;;5360878;26;20058;-91
2024/04/25 05:55:18;;;;;;;13.32;5.28;;;4.70;99.90;;;;;;5378135;26;20000;-88
2024/04/25 05:57:44;;;;;;;11.40;5.65;;;4.70;99.90;;;;;;5325463;26;20509;-89
2024/04/25 06:00:10;;;;;;;20.55;5.65;;;4.70;99.90;;;;;;5373737;26;20007;-89
2024/04/25 06:02:36;;;;;;;10.18;5.25;;;4.70;99.90;;;;;;5362072;26;20016;-89
2024/04/25 06:05:04;;;;;;;8.35;5.75;;;4.70;99.90;;;;;;5371169;26;20105;-92
2024/04/25 06:07:30;;;;;;;11.25;6.00;;;4.70;99.90;;;;;;5386788;26;20475;-91
2024/04/25 06:09:55;;;;;;;10.63;6.50;;;4.80;99.90;;;;;;5348696;26;20078;-93
2024/04/25 06:12:23;;;;;;;9.15;5.53;;;4.80;99.90;;;;;;5349244;26;20003;-92
2024/04/25 06:14:49;;;;;;;12.27;6.95;;;4.90;99.90;;;;;;5382992;26;20018;-91
2024/04/25 06:17:15;;;;;;;12.90;6.47;;;4.90;99.90;;;;;;5320000;26;19999;-90
2024/04/25 06:19:50;;;;;;;17.80;7.03;;;4.90;99.90;;;;;;5366864;26;20376;-91
2024/04/25 06:22:22;;;;;;;12.50;6.60;;;5.00;99.90;;;;;;5379729;26;20007;-91
2024/04/25 06:24:48;;;;;;;10.75;6.80;;;5.00;99.90;;;;;;5336035;26;20015;-90
2024/04/25 06:27:13;;;;;;;13.48;5.82;;;5.10;99.90;;;;;;5366581;26;19996;-91
2024/04/25 06:29:39;;;;;;;12.00;6.18;;;5.10;99.90;;;;;;5373314;26;20052;-90
2024/04/25 06:32:08;;;;;;;10.00;5.55;;;5.20;99.90;;;;;;5361898;26;20000;-93
2024/04/25 06:34:34;;;;;;;9.35;5.82;;;5.20;99.90;;;;;;5373171;26;20004;-89
2024/04/25 06:37:02;;;;;;;16.77;6.35;;;5.30;99.90;;;;;;5340920;26;20004;-89
2024/04/25 06:39:27;;;;;;;15.88;6.32;;;5.30;99.90;;;;;;5360278;26;20164;-89
2024/04/25 06:41:56;;;;;;;11.85;5.97;;;5.40;99.90;;;;;;5373870;26;20015;-91
2024/04/25 06:44:21;;;;;;;13.60;6.25;;;5.50;99.90;;;;;;5375631;26;20014;-88
2024/04/25 06:46:56;;;;;;;11.18;6.40;;;5.50;99.90;;;;;;5362559;26;20007;-91
2024/04/25 06:49:21;;;;;;;;;;;5.50;99.90;;;;;;5309869;26;20494;-89
2024/04/25 06:51:47;;;;;;;10.02;5.60;;;5.50;99.90;;;;;;5369894;26;19925;-91
2024/04/25 06:54:24;;;;;;;9.70;5.43;;;5.50;99.90;;;;;;5354767;26;20000;-88
2024/04/25 06:56:53;;;;;;;13.02;5.75;;;5.40;99.90;;;;;;5364761;26;20126;-90
2024/04/25 06:59:19;;;;;;;10.50;5.80;;;5.50;99.90;;;;;;5354649;26;20011;-92
2024/04/25 07:01:49;;;;;;;12.30;6.07;;;5.60;99.90;;;;;;5351589;26;20004;-90
2024/04/25 07:04:15;;;;;;;12.68;6.40;;;5.60;98.30;;;;;;5377035;26;20025;-89
2024/04/25 07:06:44;;;;;;;11.02;7.25;;;5.60;98.30;;;;;;5351771;26;20014;-89
2024/04/25 07:09:19;;;;;;;10.07;5.05;;;5.60;96.80;;;;;;5358662;26;20000;-89
2024/04/25 07:11:44;;;;;;;12.45;6.43;;;5.60;98.30;;;;;;5353145;26;20421;-89
2024/04/25 07:14:10;;;;;;;12.25;6.47;;;5.60;96.50;;;;;;5380993;26;20036;-89
2024/04/25 07:16:36;;;;;;;11.52;6.43;;;5.60;96.70;;;;;;5378871;26;20006;-90
2024/04/25 07:19:01;;;;;;;12.88;6.38;;;5.80;97.30;;;;;;5380047;26;20000;-90
2024/04/25 07:21:27;;;;;;;10.90;5.18;;;5.80;97.70;;;;;;5348292;26;20025;-90
2024/04/25 07:23:58;;;;;;;10.27;6.07;;;5.80;96.00;;;;;;5337155;26;20008;-91
2024/04/25 07:26:24;;;;;;;16.10;6.03;;;5.80;95.90;;;;;;5348124;26;20001;-89
2024/04/25 07:28:56;;;;;;;16.42;7.20;;;5.90;93.90;;;;;;5357190;26;20019;-88
2024/04/25 07:31:29;;;;;;;18.75;6.07;;;6.00;95.00;;;;;;5349756;26;20007;-90
2024/04/25 07:33:55;;;;;;;11.13;6.07;;;5.80;93.90;;;;;;5338062;26;20062;-91
2024/04/25 07:36:21;;;;;;;10.18;5.65;;;5.90;95.60;;;;;;5326506;26;20060;-90
2024/04/25 07:38:46;;;;;;;12.65;6.65;;;5.90;93.30;;;;;;5383964;26;20076;-90
2024/04/25 07:41:19;;;;;;;10.45;6.32;;;5.90;94.60;;;;;;5350249;26;20020;-91
2024/04/25 07:43:57;;;;;;;14.20;8.13;;;5.90;94.10;;;;;;5360687;26;19999;-92
2024/04/25 07:46:22;;;;;;;12.30;6.57;;;5.90;95.60;;;;;;5321954;26;20076;-90
2024/04/25 07:48:48;;;;;;;11.93;5.97;;;6.00;94.70;;;;;;5339398;26;20003;-89
2024/04/25 07:51:17;;;;;;;12.25;6.57;;;6.10;95.00;;;;;;5324042;26;20004;-90
2024/04/25 07:53:45;;;;;;;16.10;6.65;;;6.10;92.90;;;;;;5342603;26;20011;-91
2024/04/25 07:56:11;;;;;;;13.32;6.75;;;6.30;94.30;;;;;;5373793;26;20088;-90
2024/04/25 07:58:36;;;;;;;10.50;6.13;;;6.30;93.00;;;;;;5380827;26;20016;-90
2024/04/25 08:01:02;;;;;;;13.30;5.53;;;6.40;90.90;;;;;;5354918;26;20006;-94
2024/04/25 08:03:28;;;;;;;15.13;5.88;;;6.40;91.50;;;;;;5353043;26;20023;-91
2024/04/25 08:05:54;;;;;;;11.90;6.45;;;6.50;92.70;;;;;;5346278;26;20051;-88
2024/04/25 08:08:20;;;;;;;13.98;6.68;;;6.50;90.90;;;;;;5339546;26;20007;-94
2024/04/25 08:10:51;;;;;;;14.38;7.70;;;6.50;91.30;;;;;;5333881;26;20823;-88
2024/04/25 08:13:20;;;;;;;14.07;8.20;;;6.50;90.40;;;;;;5372019;26;20084;-91
2024/04/25 08:15:45;;;;;;;10.70;6.43;;;6.30;89.90;;;;;;5337835;26;20004;-89
2024/04/25 08:18:14;;;;;;;12.15;5.90;;;6.50;92.00;;;;;;5360018;26;20015;-92
2024/04/25 08:20:40;;;;;;;9.32;5.25;;;6.60;90.40;;;;;;5364656;26;20004;-88
2024/04/25 08:23:05;;;;;;;13.55;6.82;;;6.50;90.10;;;;;;5352541;26;20856;-93
2024/04/25 08:25:31;;;;;;;15.32;7.32;;;6.50;92.30;;;;;;5354899;26;20077;-92
2024/04/25 08:27:57;;;;;;;12.68;6.55;;;6.50;90.80;;;;;;5367583;26;20469;-91
2024/04/25 08:30:24;;;;;;;16.40;6.90;;;6.60;93.10;;;;;;5379528;26;20012;-90
2024/04/25 08:32:50;;;;;;;16.63;8.05;;;6.60;91.80;;;;;;5370848;26;21413;-91
2024/04/25 08:35:16;;;;;;;15.68;6.57;;;6.50;93.60;;;;;;5383489;26;19996;-89
2024/04/25 08:37:52;;;;;;;11.38;5.63;;;6.20;91.20;;;;;;5371057;26;20014;-89
2024/04/25 08:40:17;;;;;;;13.13;8.02;;;6.20;93.50;;;;;;5377707;26;21824;-91
2024/04/25 08:42:44;;;;;;;12.82;5.43;;;6.20;93.70;;;;;;5351988;26;20010;-92
2024/04/25 08:45:23;;;;;;;11.25;6.28;;;6.20;95.20;;;;;;5366541;26;20019;-91
2024/04/25 08:47:51;;;;;;;17.10;6.47;;;6.40;97.10;;;;;;5369955;26;20019;-92
2024/04/25 08:50:20;;;;;;;15.27;6.93;;;6.50;98.40;;;;;;5352501;26;20015;-94
2024/04/25 08:52:55;;;;;;;13.85;7.03;;;6.60;97.90;;;;;;5325223;26;19997;-94
2024/04/25 08:55:22;;;;;;;19.30;8.05;;;6.70;96.40;;;;;;5379553;26;20415;-90
2024/04/25 08:57:47;;;;;;;14.77;7.38;;;6.80;97.20;;;;;;5368011;26;20431;-91
2024/04/25 09:00:19;;;;;;;11.85;5.70;;;6.90;97.90;;;;;;5374287;26;20000;-89
2024/04/25 09:02:48;;;;;;;13.13;5.72;;;6.80;93.00;;;;;;5390601;26;20013;-89
2024/04/25 09:05:14;;;;;;;15.95;6.43;;;6.70;94.50;;;;;;5384196;26;20016;-91
2024/04/25 09:07:51;;;;;;;11.45;6.32;;;6.70;91.90;;;;;;5322038;26;20084;-91
2024/04/25 09:10:29;;;;;;;16.05;5.75;;;6.80;92.00;;;;;;5389516;26;20014;-90
2024/04/25 09:12:58;;;;;;;8.57;5.43;;;6.80;94.30;;;;;;5359477;26;20004;-89
2024/04/25 09:15:25;;;;;;;9.90;5.85;;;6.80;91.40;;;;;;5375538;26;20091;-89
2024/04/25 09:18:04;;;;;;;11.95;5.38;;;6.70;92.20;;;;;;5379580;26;20122;-90
2024/04/25 09:20:30;;;;;;;10.55;5.18;;;6.80;92.80;;;;;;5321462;26;20004;-90
2024/04/25 09:22:57;;;;;;;12.35;6.13;;;6.60;89.90;;;;;;5359703;26;20014;-89
2024/04/25 09:25:28;;;;;;;9.00;4.40;;;6.70;92.60;;;;;;5403228;26;20007;-90
2024/04/25 09:27:57;;;;;;;9.38;5.53;;;6.80;93.10;;;;;;5414644;26;19999;-90
2024/04/25 09:30:24;;;;;;;9.90;4.43;;;6.90;93.00;;;;;;5386415;26;20010;-89
2024/04/25 09:32:50;;;;;;;8.05;5.00;;;7.00;91.70;;;;;;5385335;26;20736;-86
2024/04/25 09:35:16;;;;;;;9.00;5.13;;;7.10;89.00;;;;;;5400060;26;20012;-89
2024/04/25 09:37:41;;;;;;;13.02;5.63;;;6.90;86.40;;;;;;5400533;26;20459;-88
2024/04/25 09:40:08;;;;;;;10.88;5.10;;;6.70;87.70;;;;;;5387408;26;20000;-91
2024/04/25 09:42:34;;;;;;;7.90;5.45;;;6.70;91.60;;;;;;5392652;26;20875;-89
2024/04/25 09:45:03;;;;;;;11.20;5.68;;;6.80;91.30;;;;;;5400275;26;20073;-90
2024/04/25 09:47:45;;;;;;;9.35;5.30;;;6.90;90.00;;;;;;5361562;26;20484;-88
2024/04/25 09:50:20;;;;;;;7.40;5.95;;;7.20;90.20;;;;;;5400225;26;20001;-88
2024/04/25 09:53:11;;;;;;;13.77;5.05;;;7.40;91.60;;;;;;5396001;26;20003;-90
2024/04/25 09:55:39;;;;;;;9.75;4.68;;;7.50;90.00;;;;;;5403216;26;19995;-89
2024/04/25 09:58:11;;;;;;;8.73;5.03;;;7.60;91.10;;;;;;5402234;26;19995;-89
2024/04/25 10:00:38;;;;;;;10.32;5.50;;;7.90;93.00;;;;;;5395937;26;20052;-90
2024/04/25 10:03:05;;;;;;;10.77;5.18;;;8.10;91.40;;;;;;5374210;26;20018;-89
2024/04/25 10:05:31;;;;;;;13.13;5.43;;;7.90;89.40;;;;;;5393972;26;20068;-90
2024/04/25 10:07:57;;;;;;;10.95;4.60;;;8.10;91.60;;;;;;5376320;26;20004;-89
2024/04/25 10:10:25;;;;;;;8.23;4.72;;;8.20;86.00;;;;;;5410771;26;20054;-90
2024/04/25 10:12:51;;;;;;;9.02;4.72;;;7.80;84.20;;;;;;5402436;26;19991;-89
2024/04/25 10:15:29;;;;;;;7.07;3.90;;;7.70;81.10;;;;;;5408737;26;19996;-90
2024/04/25 10:17:55;;;;;;;7.97;4.13;;;7.70;79.10;;;;;;5408863;26;20003;-89
2024/04/25 10:20:21;;;;;;;6.88;4.40;;;8.00;84.20;;;;;;5408625;26;20006;-90
2024/04/25 10:22:57;;;;;;;8.38;5.05;;;8.00;81.40;;;;;;5396643;26;20099;-90
2024/04/25 10:25:24;;;;;;;13.85;5.03;;;8.30;82.40;;;;;;5396337;26;20022;-90
2024/04/25 10:28:01;;;;;;;8.63;4.45;;;8.40;79.60;;;;;;5403990;26;20068;-89
2024/04/25 10:30:27;;;;;;;7.35;3.42;;;8.60;77.00;;;;;;5415424;26;20000;-90
2024/04/25 10:32:53;;;;;;;9.40;4.43;;;8.30;71.00;;;;;;5370859;26;20078;-90
2024/04/25 10:35:19;;;;;;;11.77;6.28;;;8.30;74.20;;;;;;5386784;26;20008;-89
2024/04/25 10:37:46;;;;;;;48.83;22.75;;;8.40;78.90;;;;;;5378220;26;20004;-88
2024/04/25 10:40:14;;;;;;;12.30;7.15;;;8.40;74.60;;;;;;5391864;26;20001;-90
2024/04/25 10:42:40;;;;;;;11.13;6.88;;;8.20;73.90;;;;;;5394664;26;20069;-87
2024/04/25 10:45:07;;;;;;;10.20;7.25;;;8.10;78.40;;;;;;5409223;26;19999;-88
2024/04/25 10:47:34;;;;;;;6.50;3.97;;;7.80;76.50;;;;;;5379338;26;20006;-90
2024/04/25 10:50:00;;;;;;;4.43;3.80;;;8.00;73.70;;;;;;5418157;26;20008;-91
2024/04/25 10:52:26;;;;;;;4.65;3.33;;;8.60;70.30;;;;;;5382863;26;20012;-88
2024/04/25 10:54:52;;;;;;;7.43;3.53;;;9.10;70.60;;;;;;5398459;26;20003;-91
2024/04/25 10:57:17;;;;;;;3.42;3.13;;;9.10;65.90;;;;;;5387556;26;20480;-91
2024/04/25 10:59:44;;;;;;;4.13;2.92;;;9.20;66.00;;;;;;5390313;26;19992;-90
2024/04/25 11:02:11;;;;;;;2.40;0.93;;;8.80;59.80;;;;;;5421093;26;20048;-90
2024/04/25 11:04:39;;;;;;;6.28;5.78;;;9.00;65.10;;;;;;5384791;26;20011;-89
2024/04/25 11:07:06;;;;;;;5.05;4.55;;;9.40;64.30;;;;;;5400092;26;20047;-89
2024/04/25 11:09:32;;;;;;;3.83;3.55;;;9.40;62.10;;;;;;5404330;26;20006;-88
2024/04/25 11:11:58;;;;;;;3.97;3.17;;;9.80;67.40;;;;;;5383972;26;20010;-88
2024/04/25 11:14:24;;;;;;;2.47;2.28;;;10.20;58.90;;;;;;5392541;26;19996;-89
2024/04/25 11:16:50;;;;;;;3.17;1.67;;;10.60;57.70;;;;;;5411480;26;19993;-90
2024/04/25 11:19:16;;;;;;;2.85;2.65;;;10.90;54.30;;;;;;5379239;26;20570;-88
2024/04/25 11:21:47;;;;;;;3.22;2.88;;;10.70;52.20;;;;;;5390055;26;19995;-89
2024/04/25 11:24:16;;;;;;;4.65;4.35;;;11.10;54.30;;;;;;5380611;26;19996;-88
2024/04/25 11:26:46;;;;;;;4.25;2.65;;;11.50;53.60;;;;;;5394476;26;20020;-89
2024/04/25 11:29:13;;;;;;;2.45;1.70;;;11.50;49.20;;;;;;5387451;26;20347;-90
2024/04/25 11:31:40;;;;;;;4.40;3.97;;;11.20;50.40;;;;;;5383069;26;20015;-89
2024/04/25 11:34:18;;;;;;;4.15;3.75;;;11.30;48.50;;;;;;5400257;26;20058;-89
2024/04/25 11:36:44;;;;;;;4.93;3.90;;;11.70;48.50;;;;;;5411300;26;20010;-89
2024/04/25 11:39:17;;;;;;;3.60;3.28;;;11.90;48.50;;;;;;5415454;26;19999;-89
2024/04/25 11:41:43;;;;;;;21.52;11.68;;;11.40;52.00;;;;;;5403740;26;20012;-90
2024/04/25 11:44:09;;;;;;;67.47;29.60;;;10.40;56.50;;;;;;5407805;26;20012;-91
2024/04/25 11:46:35;;;;;;;4.05;3.45;;;10.00;58.10;;;;;;5413250;26;20010;-90
2024/04/25 11:49:03;;;;;;;6.07;3.83;;;9.70;64.50;;;;;;5384993;26;20003;-89
2024/04/25 11:51:30;;;;;;;5.32;3.47;;;9.40;64.30;;;;;;5392416;26;19996;-90
2024/04/25 11:53:56;;;;;;;4.43;4.03;;;9.20;60.00;;;;;;5405549;26;20512;-90
2024/04/25 11:56:21;;;;;;;4.30;3.97;;;8.80;60.40;;;;;;5411271;26;19991;-92
2024/04/25 11:58:47;;;;;;;2.95;2.50;;;9.10;60.80;;;;;;5406826;26;20072;-91
2024/04/25 12:01:13;;;;;;;3.30;1.80;;;9.40;60.20;;;;;;5410099;26;20024;-90
2024/04/25 12:03:38;;;;;;;5.47;3.00;;;9.30;54.00;;;;;;5408656;26;20014;-92
2024/04/25 12:06:04;;;;;;;4.43;3.63;;;9.50;54.80;;;;;;5415218;26;20173;-89
2024/04/25 12:08:30;;;;;;;7.68;6.60;;;9.60;54.30;;;;;;5397780;26;20004;-88
2024/04/25 12:10:56;;;;;;;7.93;5.38;;;10.00;54.60;;;;;;5405270;26;20023;-90
2024/04/25 12:13:21;;;;;;;3.13;2.63;;;10.00;50.10;;;;;;5409755;26;20028;-88
2024/04/25 12:15:47;;;;;;;4.65;3.22;;;9.90;50.40;;;;;;5414086;26;20011;-90
2024/04/25 12:18:13;;;;;;;3.47;3.25;;;9.70;53.00;;;;;;5417708;26;20003;-89
2024/04/25 12:20:39;;;;;;;5.38;3.47;;;10.00;53.20;;;;;;5396943;26;20070;-91
2024/04/25 12:23:04;;;;;;;4.50;3.08;;;9.60;52.50;;;;;;5385722;26;20011;-89
2024/04/25 12:25:31;;;;;;;5.43;3.15;;;9.60;55.70;;;;;;5405792;26;20026;-90
2024/04/25 12:27:57;;;;;;;6.05;4.47;;;9.60;53.50;;;;;;5413063;26;19995;-88
2024/04/25 12:30:23;;;;;;;6.88;5.68;;;9.50;55.20;;;;;;5407294;26;20014;-89
2024/04/25 12:32:48;;;;;;;5.28;4.60;;;9.50;55.10;;;;;;5392430;26;20054;-89
2024/04/25 12:35:14;;;;;;;3.47;2.30;;;9.50;57.80;;;;;;5416061;26;20688;-90
2024/04/25 12:37:45;;;;;;;4.68;4.20;;;9.40;56.40;;;;;;5410133;26;20454;-92
2024/04/25 12:40:14;;;;;;;5.55;5.05;;;9.60;58.00;;;;;;5411288;26;19996;-90
2024/04/25 12:42:40;;;;;;;6.28;5.20;;;9.80;58.60;;;;;;5394295;26;20003;-90
2024/04/25 12:45:05;;;;;;;4.88;2.55;;;9.80;59.70;;;;;;5428091;26;20014;-88
2024/04/25 12:47:31;;;;;;;3.53;2.60;;;9.70;58.60;;;;;;5406510;26;20004;-91
2024/04/25 12:49:58;;;;;;;4.95;2.35;;;9.50;58.60;;;;;;5388669;26;20018;-89
2024/04/25 12:52:23;;;;;;;4.40;1.80;;;9.40;57.30;;;;;;5355459;26;20015;-93
2024/04/25 12:54:52;;;;;;;7.35;2.70;;;9.10;57.00;;;;;;5397670;26;20024;-88
2024/04/25 12:57:20;;;;;;;8.40;2.42;;;9.30;61.10;;;;;;5392981;26;20008;-90